To NAV CANADA Home Page Login to a new session Search on AWWS site Feedback and Comments Disclaimer Vers la page française équivalente Tips FAQ What's new on the site To the Forecasts and Observations / NOTAM section To "File a Flight Plan" website Publications and other links Update of the User's profile FIC Telephone Numbers My Weather Data Folder Route Weather Data Regional Weather Data Local Weather Data To the Forecasts and Observations / NOTAM section
Request Generated 01/17/2017 at 04:56:16 UTC . Weather information available at that time is displayed.

METAR/TAF

QUEBEC/JEAN LESAGE INTL/QC    

METAR CYQB 170400Z 27012KT 12SM BKN050 M03/M06 A3012 RMK SC7 DIST
PCPN NE-SE SLP206=
SPECI CYQB 170348Z 27010KT 10SM BKN053 M03/M07 A3012 RMK SC7 DIST
PCPN NE-SE SLP206=
METAR CYQB 170300Z 26013KT 10SM -SN BKN051 M03/M06 A3012 RMK SC5
SLP205=
SPECI CYQB 170219Z 26012KT 10SM -SN BKN049 M02/M06 A3011 RMK SC7
SLP202=
METAR CYQB 170200Z 26011KT 15SM VCSH BKN042 M02/M06 A3010 RMK SC7
SLP201=

TAF CYQB 162338Z 1700/1724 24008KT P6SM FEW008 BKN030
FM170500 27008KT P6SM SCT030
BECMG 1714/1716 04008KT
FM171800 06012KT P6SM SKC
FM172300 07012KT P6SM BKN220
RMK NXT FCST BY 170600Z=
Your time UTC time
Weather data provided by Environment Canada and NAV CANADA